Mercurius — 5BCU3 — position and weather

sailwx.info

Track history (hours):
 
Tides and Currents Weather Stations Pressure Air Temp Water Temp Dewpoint Dewpoint Depression Visibility Wind Speed Wind Dir Waves Ship Positions

Mercurius

Last reported at 2018-Jun-23 18:32 UTC. Time now 2018-Jun-25 06:07 UTC.
Position N 36°36' W 000°46'.

Length 180 m; draft 9.7 m.

Type: Cargo ship. MMSI: 209532000.

Date/timePositionNaut miles runAvg speedWind from/ knotsBaromVisibWave heightAir tempDewpointWater temp
2018-Jun-23 18:32N 36°36' W 000°46'412.5
2018-Jun-23 18:11N 36°37' W 000°40'212.4
2018-Jun-23 18:00N 36°37' W 000°37'1212.3
2018-Jun-23 17:00N 36°38' W 000°22'2212.5
2018-Jun-23 15:14N 36°42' E 000°05'412.6
2018-Jun-23 14:55N 36°42' E 000°10'512.5
2018-Jun-23 14:29N 36°43' E 000°16'612.4
2018-Jun-23 14:00N 36°44' E 000°24'2012.0
2018-Jun-23 12:22N 36°47' E 000°48'411.4
2018-Jun-23 12:00N 36°47' E 000°53'611.5
2018-Jun-23 11:31N 36°48' E 001°00'611.9
2018-Jun-23 10:58N 36°49' E 001°08'612.1
2018-Jun-23 10:29N 36°50' E 001°16'712.1
2018-Jun-23 09:51N 36°51' E 001°25'412.0
2018-Jun-23 09:31N 36°52' E 001°30'1512.0
2018-Jun-23 08:16N 36°54' E 001°48'412.1
2018-Jun-23 07:59N 36°54' E 001°53'712.4
2018-Jun-23 07:25N 36°56' E 002°01'912.9
2018-Jun-23 06:41N 36°57' E 002°13'213.2
2018-Jun-23 06:30N 36°57' E 002°16'613.1
2018-Jun-23 06:01N 36°58' E 002°24'713.1
2018-Jun-23 05:31N 36°59' E 002°32'713.0
2018-Jun-23 05:01N 36°60' E 002°40'812.8
2018-Jun-23 04:22N 37°01' E 002°51'512.9
2018-Jun-23 03:59N 37°02' E 002°56'3013.2
2018-Jun-23 01:45N 37°06' E 003°33'413.2
2018-Jun-23 01:24N 37°06' E 003°39'513.0
2018-Jun-23 01:00N 37°07' E 003°45'612.7
2018-Jun-23 00:30N 37°08' E 003°53'2812.4
2018-Jun-22 22:15N 37°12' E 004°28'41812.1
2018-Jun-21 11:37N 36°54' E 013°11'212.6
2018-Jun-21 11:29N 36°53' E 013°13'812.5
2018-Jun-21 10:51N 36°52' E 013°23'412.4
2018-Jun-21 10:30N 36°51' E 013°28'612.3
2018-Jun-21 10:00N 36°49' E 013°36'912.1
2018-Jun-21 09:17N 36°48' E 013°46'512.0
2018-Jun-21 08:54N 36°47' E 013°52'511.9
2018-Jun-21 08:30N 36°45' E 013°58'611.7
2018-Jun-21 08:00N 36°44' E 014°05'611.6
2018-Jun-21 07:30N 36°43' E 014°12'612.0
2018-Jun-21 07:00N 36°42' E 014°20'1212.5
2018-Jun-21 06:03N 36°39' E 014°34'112.2
2018-Jun-21 06:00N 36°39' E 014°35'  
2018-Jun-16 20:11N 44°26' E 037°26'312.5
2018-Jun-16 19:57N 44°27' E 037°29'612.5
2018-Jun-16 19:30N 44°30' E 037°36'612.6
2018-Jun-16 19:00N 44°33' E 037°44'612.5
2018-Jun-16 18:30N 44°38' E 037°49'3 6.3
2018-Jun-16 17:59N 44°41' E 037°51'0 0.3
2018-Jun-16 17:29N 44°41' E 037°51'0 0.0
2018-Jun-16 16:59N 44°41' E 037°51'0 0.0
2018-Jun-16 16:29N 44°41' E 037°51'0 0.0
2018-Jun-16 15:59N 44°41' E 037°51'0 0.0
2018-Jun-16 15:29N 44°41' E 037°51'0 0.0
2018-Jun-16 14:59N 44°41' E 037°51'0 0.1
2018-Jun-16 14:29N 44°41' E 037°51'0 0.0
2018-Jun-16 13:59N 44°41' E 037°51'0 0.0
2018-Jun-16 13:29N 44°41' E 037°51'0 0.0
2018-Jun-16 12:59N 44°41' E 037°51'0 0.0
2018-Jun-16 12:29N 44°41' E 037°51'0 0.0
2018-Jun-16 11:59N 44°41' E 037°51'0 0.0
2018-Jun-16 11:29N 44°41' E 037°51'0 0.1
2018-Jun-16 10:59N 44°41' E 037°51'0 0.1
2018-Jun-16 10:29N 44°41' E 037°51'1 1.5
2018-Jun-16 10:00N 44°42' E 037°50'3 5.5
2018-Jun-16 09:30N 44°44' E 037°47'0 0.5
2018-Jun-16 08:59N 44°44' E 037°47'0 0.0
2018-Jun-16 08:26N 44°44' E 037°47'0 0.0
2018-Jun-16 07:59N 44°44' E 037°47'0 0.0
2018-Jun-16 07:29N 44°44' E 037°47'0 0.0
2018-Jun-16 06:59N 44°44' E 037°47'0 0.0
2018-Jun-16 06:29N 44°44' E 037°47'0 0.0
2018-Jun-16 05:59N 44°44' E 037°47'0 0.0
2018-Jun-16 05:29N 44°44' E 037°47'0 0.0
2018-Jun-16 04:59N 44°44' E 037°47'0 0.0
2018-Jun-16 04:29N 44°44' E 037°47'0 0.0
2018-Jun-16 03:59N 44°44' E 037°47'0 0.0
2018-Jun-16 03:29N 44°44' E 037°47'0 0.0
2018-Jun-16 02:59N 44°44' E 037°47'0 0.0
2018-Jun-16 02:29N 44°44' E 037°47'0 0.0
2018-Jun-16 01:59N 44°44' E 037°47'0 0.0
2018-Jun-16 01:29N 44°44' E 037°47'0 0.0
2018-Jun-16 00:59N 44°44' E 037°47'0 0.0
2018-Jun-16 00:29N 44°44' E 037°47'0 0.0
2018-Jun-15 23:59N 44°44' E 037°47'0 0.0
2018-Jun-15 23:29N 44°44' E 037°47'0 0.0
2018-Jun-15 22:59N 44°44' E 037°47'0 0.0
2018-Jun-15 22:29N 44°44' E 037°47'0 0.0
2018-Jun-15 21:59N 44°44' E 037°47'0 0.0
2018-Jun-15 21:29N 44°44' E 037°47'0 0.0
2018-Jun-15 20:59N 44°44' E 037°47'0 0.0
2018-Jun-15 20:29N 44°44' E 037°47'0 0.0
2018-Jun-15 19:59N 44°44' E 037°47'0 0.0
2018-Jun-15 19:29N 44°44' E 037°47'0 0.0
2018-Jun-15 18:59N 44°44' E 037°47'0 0.0
2018-Jun-15 18:29N 44°44' E 037°47'0 0.0
2018-Jun-15 17:59N 44°44' E 037°47'0 0.0
2018-Jun-15 17:29N 44°44' E 037°47'0 0.0
2018-Jun-15 16:59N 44°44' E 037°47'0 0.0
2018-Jun-15 16:26N 44°44' E 037°47'0 0.0
2018-Jun-15 15:59N 44°44' E 037°47'0 0.0
2018-Jun-15 15:29N 44°44' E 037°47'0 0.0
2018-Jun-15 14:59N 44°44' E 037°47'0 0.0
2018-Jun-15 14:29N 44°44' E 037°47'0 0.0
2018-Jun-15 13:59N 44°44' E 037°47'0 0.0
2018-Jun-15 13:29N 44°44' E 037°47'0 0.0
2018-Jun-15 12:59N 44°44' E 037°47'0 0.0
2018-Jun-15 12:29N 44°44' E 037°47'0 0.0
2018-Jun-15 11:59N 44°44' E 037°47'0 0.0
2018-Jun-15 11:29N 44°44' E 037°47'0 0.0
2018-Jun-15 10:56N 44°44' E 037°47'0 0.0
2018-Jun-15 10:29N 44°44' E 037°47'0 0.0
2018-Jun-15 09:59N 44°44' E 037°47'0 0.0
2018-Jun-15 09:29N 44°44' E 037°47'0 0.0
2018-Jun-15 08:59N 44°44' E 037°47'0 0.0
2018-Jun-15 08:29N 44°44' E 037°47'0 0.0
2018-Jun-15 07:59N 44°44' E 037°47'0 0.0
2018-Jun-15 07:29N 44°44' E 037°47'0 0.0
2018-Jun-15 06:59N 44°44' E 037°47'0 0.0
2018-Jun-15 06:23N 44°44' E 037°47'0 0.0
2018-Jun-15 05:59N 44°44' E 037°47'0 0.0
2018-Jun-15 05:29N 44°44' E 037°47'0 0.0
2018-Jun-15 04:59N 44°44' E 037°47'0 0.0
2018-Jun-15 04:29N 44°44' E 037°47'0 0.0
2018-Jun-15 03:59N 44°44' E 037°47'0 0.0
2018-Jun-15 03:29N 44°44' E 037°47'0 0.0
2018-Jun-15 02:59N 44°44' E 037°47'0 0.0
2018-Jun-15 02:29N 44°44' E 037°47'0 0.0
2018-Jun-15 01:59N 44°44' E 037°47'0 0.0
2018-Jun-15 01:28N 44°44' E 037°47'0 0.0
2018-Jun-15 00:58N 44°44' E 037°47'0 0.0
2018-Jun-15 00:28N 44°44' E 037°47'0 0.0
2018-Jun-14 23:59N 44°44' E 037°47'0 0.0
2018-Jun-14 23:28N 44°44' E 037°47'0 0.0
2018-Jun-14 22:58N 44°44' E 037°47'0 0.0
2018-Jun-14 22:29N 44°44' E 037°47'0 0.0
2018-Jun-14 21:55N 44°44' E 037°47'0 0.0
2018-Jun-14 21:29N 44°44' E 037°47'0 0.0
2018-Jun-14 20:59N 44°44' E 037°47'0 0.0
2018-Jun-14 20:29N 44°44' E 037°47'0 0.0
2018-Jun-14 19:59N 44°44' E 037°47'0 0.0
2018-Jun-14 19:28N 44°44' E 037°47'0 0.0
2018-Jun-14 18:58N 44°44' E 037°47'0 0.0
2018-Jun-14 18:28N 44°44' E 037°47'0 0.0
2018-Jun-14 17:58N 44°44' E 037°47'0 0.0
2018-Jun-14 17:29N 44°44' E 037°47'0 0.0
2018-Jun-14 16:58N 44°44' E 037°47'0 0.0
2018-Jun-14 16:28N 44°44' E 037°47'0 0.0
2018-Jun-14 15:59N 44°44' E 037°47'0 0.0
2018-Jun-14 15:25N 44°44' E 037°47'0 0.0
2018-Jun-14 14:58N 44°44' E 037°47'0 0.0
2018-Jun-14 14:28N 44°44' E 037°47'0 0.0
2018-Jun-14 13:58N 44°44' E 037°47'0 0.0
2018-Jun-14 13:28N 44°44' E 037°47'0 0.0
2018-Jun-14 12:59N 44°44' E 037°47'0 0.0
2018-Jun-14 12:28N 44°44' E 037°47'0 0.0
2018-Jun-14 11:58N 44°44' E 037°47'0 0.0
2018-Jun-14 11:28N 44°44' E 037°47'0 0.0
2018-Jun-14 10:58N 44°44' E 037°47'0 0.0
2018-Jun-14 10:28N 44°44' E 037°47'0 0.0
2018-Jun-14 09:58N 44°44' E 037°47'0 0.0
2018-Jun-14 09:28N 44°44' E 037°47'0 0.0
2018-Jun-14 08:58N 44°44' E 037°47'0 0.0
2018-Jun-14 08:28N 44°44' E 037°47'0 0.0
2018-Jun-14 07:55N 44°44' E 037°47'0 0.0
2018-Jun-14 07:28N 44°44' E 037°47'0 0.0
2018-Jun-14 06:58N 44°44' E 037°47'0 0.0
2018-Jun-14 06:28N 44°44' E 037°47'0 0.0
2018-Jun-14 05:58N 44°44' E 037°47'0 0.0
2018-Jun-14 05:28N 44°44' E 037°47'0 0.0
2018-Jun-14 04:58N 44°44' E 037°47'0 0.0
2018-Jun-14 04:28N 44°44' E 037°47'0 0.0
2018-Jun-14 03:58N 44°44' E 037°47'0 0.0
2018-Jun-14 03:28N 44°44' E 037°47'0 0.0
2018-Jun-14 02:58N 44°44' E 037°47'0 0.0
2018-Jun-14 02:28N 44°44' E 037°47'0 0.0
2018-Jun-14 01:58N 44°44' E 037°47'0 0.0
2018-Jun-14 01:28N 44°44' E 037°47'0 0.0
2018-Jun-14 00:58N 44°44' E 037°47'0 0.0
2018-Jun-14 00:28N 44°44' E 037°47'0 0.0
2018-Jun-13 23:55N 44°44' E 037°47'0 0.0
2018-Jun-13 23:28N 44°44' E 037°47'0 0.0
2018-Jun-13 22:58N 44°44' E 037°47'0 0.0
2018-Jun-13 22:28N 44°44' E 037°47'0 0.0
2018-Jun-13 21:58N 44°44' E 037°47'0 0.0
2018-Jun-13 21:28N 44°44' E 037°47'0 0.0
2018-Jun-13 20:58N 44°44' E 037°47'0 0.0
2018-Jun-13 20:28N 44°44' E 037°47'0 0.0
2018-Jun-13 19:58N 44°44' E 037°47'0 0.0
2018-Jun-13 19:28N 44°44' E 037°47'0 0.0
2018-Jun-13 18:58N 44°44' E 037°47'  
Track history (hours):
 
Tides and Currents Weather Stations Pressure Air Temp Water Temp Dewpoint Dewpoint Depression Visibility Wind Speed Wind Dir Waves Ship Positions

Mercurius

Last reported at 2018-Jun-23 18:32 UTC. Time now 2018-Jun-25 06:07 UTC.
Position N 36°36' W 000°46'.

Length 180 m; draft 9.7 m.

Type: Cargo ship. MMSI: 209532000.

Date/timePositionNaut miles runAvg speedWind from/ knotsBaromVisibWave heightAir tempDewpointWater temp
2018-Jun-23 18:32N 36°36' W 000°46'412.5
2018-Jun-23 18:11N 36°37' W 000°40'212.4
2018-Jun-23 18:00N 36°37' W 000°37'1212.3
2018-Jun-23 17:00N 36°38' W 000°22'2212.5
2018-Jun-23 15:14N 36°42' E 000°05'412.6
2018-Jun-23 14:55N 36°42' E 000°10'512.5
2018-Jun-23 14:29N 36°43' E 000°16'612.4
2018-Jun-23 14:00N 36°44' E 000°24'2012.0
2018-Jun-23 12:22N 36°47' E 000°48'411.4
2018-Jun-23 12:00N 36°47' E 000°53'611.5
2018-Jun-23 11:31N 36°48' E 001°00'611.9
2018-Jun-23 10:58N 36°49' E 001°08'612.1
2018-Jun-23 10:29N 36°50' E 001°16'712.1
2018-Jun-23 09:51N 36°51' E 001°25'412.0
2018-Jun-23 09:31N 36°52' E 001°30'1512.0
2018-Jun-23 08:16N 36°54' E 001°48'412.1
2018-Jun-23 07:59N 36°54' E 001°53'712.4
2018-Jun-23 07:25N 36°56' E 002°01'912.9
2018-Jun-23 06:41N 36°57' E 002°13'213.2
2018-Jun-23 06:30N 36°57' E 002°16'613.1
2018-Jun-23 06:01N 36°58' E 002°24'713.1
2018-Jun-23 05:31N 36°59' E 002°32'713.0
2018-Jun-23 05:01N 36°60' E 002°40'812.8
2018-Jun-23 04:22N 37°01' E 002°51'512.9
2018-Jun-23 03:59N 37°02' E 002°56'3013.2
2018-Jun-23 01:45N 37°06' E 003°33'413.2
2018-Jun-23 01:24N 37°06' E 003°39'513.0
2018-Jun-23 01:00N 37°07' E 003°45'612.7
2018-Jun-23 00:30N 37°08' E 003°53'2812.4
2018-Jun-22 22:15N 37°12' E 004°28'41812.1
2018-Jun-21 11:37N 36°54' E 013°11'212.6
2018-Jun-21 11:29N 36°53' E 013°13'812.5
2018-Jun-21 10:51N 36°52' E 013°23'412.4
2018-Jun-21 10:30N 36°51' E 013°28'612.3
2018-Jun-21 10:00N 36°49' E 013°36'912.1
2018-Jun-21 09:17N 36°48' E 013°46'512.0
2018-Jun-21 08:54N 36°47' E 013°52'511.9
2018-Jun-21 08:30N 36°45' E 013°58'611.7
2018-Jun-21 08:00N 36°44' E 014°05'611.6
2018-Jun-21 07:30N 36°43' E 014°12'612.0
2018-Jun-21 07:00N 36°42' E 014°20'1212.5
2018-Jun-21 06:03N 36°39' E 014°34'112.2
2018-Jun-21 06:00N 36°39' E 014°35'  
2018-Jun-16 20:11N 44°26' E 037°26'312.5
2018-Jun-16 19:57N 44°27' E 037°29'612.5
2018-Jun-16 19:30N 44°30' E 037°36'612.6
2018-Jun-16 19:00N 44°33' E 037°44'612.5
2018-Jun-16 18:30N 44°38' E 037°49'3 6.3
2018-Jun-16 17:59N 44°41' E 037°51'0 0.3
2018-Jun-16 17:29N 44°41' E 037°51'0 0.0
2018-Jun-16 16:59N 44°41' E 037°51'0 0.0
2018-Jun-16 16:29N 44°41' E 037°51'0 0.0
2018-Jun-16 15:59N 44°41' E 037°51'0 0.0
2018-Jun-16 15:29N 44°41' E 037°51'0 0.0
2018-Jun-16 14:59N 44°41' E 037°51'0 0.1
2018-Jun-16 14:29N 44°41' E 037°51'0 0.0
2018-Jun-16 13:59N 44°41' E 037°51'0 0.0
2018-Jun-16 13:29N 44°41' E 037°51'0 0.0
2018-Jun-16 12:59N 44°41' E 037°51'0 0.0
2018-Jun-16 12:29N 44°41' E 037°51'0 0.0
2018-Jun-16 11:59N 44°41' E 037°51'0 0.0
2018-Jun-16 11:29N 44°41' E 037°51'0 0.1
2018-Jun-16 10:59N 44°41' E 037°51'0 0.1
2018-Jun-16 10:29N 44°41' E 037°51'1 1.5
2018-Jun-16 10:00N 44°42' E 037°50'3 5.5
2018-Jun-16 09:30N 44°44' E 037°47'0 0.5
2018-Jun-16 08:59N 44°44' E 037°47'0 0.0
2018-Jun-16 08:26N 44°44' E 037°47'0 0.0
2018-Jun-16 07:59N 44°44' E 037°47'0 0.0
2018-Jun-16 07:29N 44°44' E 037°47'0 0.0
2018-Jun-16 06:59N 44°44' E 037°47'0 0.0
2018-Jun-16 06:29N 44°44' E 037°47'0 0.0
2018-Jun-16 05:59N 44°44' E 037°47'0 0.0
2018-Jun-16 05:29N 44°44' E 037°47'0 0.0
2018-Jun-16 04:59N 44°44' E 037°47'0 0.0
2018-Jun-16 04:29N 44°44' E 037°47'0 0.0
2018-Jun-16 03:59N 44°44' E 037°47'0 0.0
2018-Jun-16 03:29N 44°44' E 037°47'0 0.0
2018-Jun-16 02:59N 44°44' E 037°47'0 0.0
2018-Jun-16 02:29N 44°44' E 037°47'0 0.0
2018-Jun-16 01:59N 44°44' E 037°47'0 0.0
2018-Jun-16 01:29N 44°44' E 037°47'0 0.0
2018-Jun-16 00:59N 44°44' E 037°47'0 0.0
2018-Jun-16 00:29N 44°44' E 037°47'0 0.0
2018-Jun-15 23:59N 44°44' E 037°47'0 0.0
2018-Jun-15 23:29N 44°44' E 037°47'0 0.0
2018-Jun-15 22:59N 44°44' E 037°47'0 0.0
2018-Jun-15 22:29N 44°44' E 037°47'0 0.0
2018-Jun-15 21:59N 44°44' E 037°47'0 0.0
2018-Jun-15 21:29N 44°44' E 037°47'0 0.0
2018-Jun-15 20:59N 44°44' E 037°47'0 0.0
2018-Jun-15 20:29N 44°44' E 037°47'0 0.0
2018-Jun-15 19:59N 44°44' E 037°47'0 0.0
2018-Jun-15 19:29N 44°44' E 037°47'0 0.0
2018-Jun-15 18:59N 44°44' E 037°47'0 0.0
2018-Jun-15 18:29N 44°44' E 037°47'0 0.0
2018-Jun-15 17:59N 44°44' E 037°47'0 0.0
2018-Jun-15 17:29N 44°44' E 037°47'0 0.0
2018-Jun-15 16:59N 44°44' E 037°47'0 0.0
2018-Jun-15 16:26N 44°44' E 037°47'0 0.0
2018-Jun-15 15:59N 44°44' E 037°47'0 0.0
2018-Jun-15 15:29N 44°44' E 037°47'0 0.0
2018-Jun-15 14:59N 44°44' E 037°47'0 0.0
2018-Jun-15 14:29N 44°44' E 037°47'0 0.0
2018-Jun-15 13:59N 44°44' E 037°47'0 0.0
2018-Jun-15 13:29N 44°44' E 037°47'0 0.0
2018-Jun-15 12:59N 44°44' E 037°47'0 0.0
2018-Jun-15 12:29N 44°44' E 037°47'0 0.0
2018-Jun-15 11:59N 44°44' E 037°47'0 0.0
2018-Jun-15 11:29N 44°44' E 037°47'0 0.0
2018-Jun-15 10:56N 44°44' E 037°47'0 0.0
2018-Jun-15 10:29N 44°44' E 037°47'0 0.0
2018-Jun-15 09:59N 44°44' E 037°47'0 0.0
2018-Jun-15 09:29N 44°44' E 037°47'0 0.0
2018-Jun-15 08:59N 44°44' E 037°47'0 0.0
2018-Jun-15 08:29N 44°44' E 037°47'0 0.0
2018-Jun-15 07:59N 44°44' E 037°47'0 0.0
2018-Jun-15 07:29N 44°44' E 037°47'0 0.0
2018-Jun-15 06:59N 44°44' E 037°47'0 0.0
2018-Jun-15 06:23N 44°44' E 037°47'0 0.0
2018-Jun-15 05:59N 44°44' E 037°47'0 0.0
2018-Jun-15 05:29N 44°44' E 037°47'0 0.0
2018-Jun-15 04:59N 44°44' E 037°47'0 0.0
2018-Jun-15 04:29N 44°44' E 037°47'0 0.0
2018-Jun-15 03:59N 44°44' E 037°47'0 0.0
2018-Jun-15 03:29N 44°44' E 037°47'0 0.0
2018-Jun-15 02:59N 44°44' E 037°47'0 0.0
2018-Jun-15 02:29N 44°44' E 037°47'0 0.0
2018-Jun-15 01:59N 44°44' E 037°47'0 0.0
2018-Jun-15 01:28N 44°44' E 037°47'0 0.0
2018-Jun-15 00:58N 44°44' E 037°47'0 0.0
2018-Jun-15 00:28N 44°44' E 037°47'0 0.0
2018-Jun-14 23:59N 44°44' E 037°47'0 0.0
2018-Jun-14 23:28N 44°44' E 037°47'0 0.0
2018-Jun-14 22:58N 44°44' E 037°47'0 0.0
2018-Jun-14 22:29N 44°44' E 037°47'0 0.0
2018-Jun-14 21:55N 44°44' E 037°47'0 0.0
2018-Jun-14 21:29N 44°44' E 037°47'0 0.0
2018-Jun-14 20:59N 44°44' E 037°47'0 0.0
2018-Jun-14 20:29N 44°44' E 037°47'0 0.0
2018-Jun-14 19:59N 44°44' E 037°47'0 0.0
2018-Jun-14 19:28N 44°44' E 037°47'0 0.0
2018-Jun-14 18:58N 44°44' E 037°47'0 0.0
2018-Jun-14 18:28N 44°44' E 037°47'0 0.0
2018-Jun-14 17:58N 44°44' E 037°47'0 0.0
2018-Jun-14 17:29N 44°44' E 037°47'0 0.0
2018-Jun-14 16:58N 44°44' E 037°47'0 0.0
2018-Jun-14 16:28N 44°44' E 037°47'0 0.0
2018-Jun-14 15:59N 44°44' E 037°47'0 0.0
2018-Jun-14 15:25N 44°44' E 037°47'0 0.0
2018-Jun-14 14:58N 44°44' E 037°47'0 0.0
2018-Jun-14 14:28N 44°44' E 037°47'0 0.0
2018-Jun-14 13:58N 44°44' E 037°47'0 0.0
2018-Jun-14 13:28N 44°44' E 037°47'0 0.0
2018-Jun-14 12:59N 44°44' E 037°47'0 0.0
2018-Jun-14 12:28N 44°44' E 037°47'0 0.0
2018-Jun-14 11:58N 44°44' E 037°47'0 0.0
2018-Jun-14 11:28N 44°44' E 037°47'0 0.0
2018-Jun-14 10:58N 44°44' E 037°47'0 0.0
2018-Jun-14 10:28N 44°44' E 037°47'0 0.0
2018-Jun-14 09:58N 44°44' E 037°47'0 0.0
2018-Jun-14 09:28N 44°44' E 037°47'0 0.0
2018-Jun-14 08:58N 44°44' E 037°47'0 0.0
2018-Jun-14 08:28N 44°44' E 037°47'0 0.0
2018-Jun-14 07:55N 44°44' E 037°47'0 0.0
2018-Jun-14 07:28N 44°44' E 037°47'0 0.0
2018-Jun-14 06:58N 44°44' E 037°47'0 0.0
2018-Jun-14 06:28N 44°44' E 037°47'0 0.0
2018-Jun-14 05:58N 44°44' E 037°47'0 0.0
2018-Jun-14 05:28N 44°44' E 037°47'0 0.0
2018-Jun-14 04:58N 44°44' E 037°47'0 0.0
2018-Jun-14 04:28N 44°44' E 037°47'0 0.0
2018-Jun-14 03:58N 44°44' E 037°47'0 0.0
2018-Jun-14 03:28N 44°44' E 037°47'0 0.0
2018-Jun-14 02:58N 44°44' E 037°47'0 0.0
2018-Jun-14 02:28N 44°44' E 037°47'0 0.0
2018-Jun-14 01:58N 44°44' E 037°47'0 0.0
2018-Jun-14 01:28N 44°44' E 037°47'0 0.0
2018-Jun-14 00:58N 44°44' E 037°47'0 0.0
2018-Jun-14 00:28N 44°44' E 037°47'0 0.0
2018-Jun-13 23:55N 44°44' E 037°47'0 0.0
2018-Jun-13 23:28N 44°44' E 037°47'0 0.0
2018-Jun-13 22:58N 44°44' E 037°47'0 0.0
2018-Jun-13 22:28N 44°44' E 037°47'0 0.0
2018-Jun-13 21:58N 44°44' E 037°47'0 0.0
2018-Jun-13 21:28N 44°44' E 037°47'0 0.0
2018-Jun-13 20:58N 44°44' E 037°47'0 0.0
2018-Jun-13 20:28N 44°44' E 037°47'0 0.0
2018-Jun-13 19:58N 44°44' E 037°47'0 0.0
2018-Jun-13 19:28N 44°44' E 037°47'0 0.0
2018-Jun-13 18:58N 44°44' E 037°47'  

Dump ship's entire track history